createdAt,value
2023-01-17T00:01:16.806Z,1.90
2023-01-17T00:03:32.501Z,1.30
2023-01-17T00:06:05.598Z,1.70
2023-01-17T00:08:52.590Z,1.60
2023-01-17T00:11:06.639Z,1.90
2023-01-17T00:13:19.776Z,1.90
2023-01-17T00:15:35.351Z,1.50
2023-01-17T00:17:49.882Z,2.00
2023-01-17T00:20:20.442Z,2.00
2023-01-17T00:22:52.080Z,2.10
2023-01-17T00:25:21.947Z,3.40
2023-01-17T00:27:34.611Z,3.90
2023-01-17T00:29:46.652Z,3.90
2023-01-17T00:34:08.353Z,2.60
2023-01-17T00:36:19.534Z,2.50
2023-01-17T00:38:33.127Z,2.20
2023-01-17T00:40:45.309Z,2.70
2023-01-17T00:43:15.259Z,2.10
2023-01-17T00:45:44.903Z,2.60
2023-01-17T00:48:15.768Z,2.60
2023-01-17T00:50:46.460Z,1.90
2023-01-17T00:53:17.684Z,2.40
2023-01-17T00:55:48.105Z,1.70
2023-01-17T00:58:18.799Z,1.70
2023-01-17T01:00:49.725Z,2.10
2023-01-17T01:03:20.242Z,2.10
2023-01-17T01:05:50.536Z,2.20
2023-01-17T01:08:21.420Z,1.60
2023-01-17T01:10:52.201Z,2.00
2023-01-17T01:13:22.630Z,1.90
2023-01-17T01:15:53.178Z,1.80
2023-01-17T01:18:27.270Z,1.70
2023-01-17T01:20:57.846Z,1.60
2023-01-17T01:23:29.475Z,1.20
2023-01-17T01:26:00.695Z,1.70
2023-01-17T01:28:36.219Z,1.60
2023-01-17T01:31:07.540Z,1.80
2023-01-17T01:33:22.252Z,1.30
2023-01-17T01:35:36.695Z,1.70
2023-01-17T01:37:52.089Z,1.40
2023-01-17T01:40:05.497Z,1.80
2023-01-17T01:42:21.934Z,1.60
2023-01-17T01:44:53.741Z,2.00
2023-01-17T01:47:08.014Z,1.60
2023-01-17T01:49:25.915Z,2.10
2023-01-17T01:51:43.345Z,1.40
2023-01-17T01:54:03.569Z,1.40
2023-01-17T01:56:18.599Z,1.30
2023-01-17T01:58:38.060Z,1.60
2023-01-17T02:00:52.753Z,1.50
2023-01-17T02:03:10.288Z,1.50
2023-01-17T02:05:25.442Z,1.90
2023-01-17T02:07:43.738Z,1.20
2023-01-17T02:09:58.849Z,1.80
2023-01-17T02:12:13.580Z,1.90
2023-01-17T02:14:27.532Z,1.40
2023-01-17T02:16:57.423Z,1.70
2023-01-17T02:19:26.356Z,1.60
2023-01-17T02:21:49.102Z,1.90
2023-01-17T02:24:37.968Z,2.10
2023-01-17T02:27:10.532Z,1.60
2023-01-17T02:30:04.033Z,1.70
2023-01-17T02:32:26.778Z,1.90
2023-01-17T02:34:50.441Z,1.80
2023-01-17T02:37:11.745Z,1.80
2023-01-17T02:39:30.176Z,1.60
2023-01-17T02:41:47.195Z,2.20
2023-01-17T02:44:02.060Z,2.00
2023-01-17T02:46:15.353Z,3.70
2023-01-17T02:48:30.843Z,2.80
2023-01-17T02:50:55.482Z,3.50
2023-01-17T02:53:25.328Z,3.10
2023-01-17T02:55:51.778Z,2.70
2023-01-17T02:58:18.651Z,2.70
2023-01-17T03:00:41.327Z,2.40
2023-01-17T03:03:03.638Z,2.40
2023-01-17T03:05:23.496Z,1.90
2023-01-17T03:07:41.847Z,2.20
2023-01-17T03:10:01.319Z,3.30
2023-01-17T03:12:16.561Z,2.10
2023-01-17T03:14:30.033Z,2.00
2023-01-17T03:16:43.359Z,3.00
2023-01-17T03:18:57.100Z,2.60
2023-01-17T03:21:14.554Z,2.00
2023-01-17T03:23:29.650Z,2.70
2023-01-17T03:25:45.379Z,2.10
2023-01-17T03:28:00.283Z,2.50
2023-01-17T03:30:17.152Z,1.80
2023-01-17T03:32:31.467Z,2.30
2023-01-17T03:34:44.421Z,2.10
2023-01-17T03:36:58.658Z,2.40
2023-01-17T03:39:12.691Z,2.50
2023-01-17T03:41:27.312Z,2.70
2023-01-17T03:43:40.872Z,2.60
2023-01-17T03:45:55.550Z,2.40
2023-01-17T03:48:08.247Z,3.40
2023-01-17T03:50:21.113Z,3.00
2023-01-17T03:52:33.734Z,2.90
2023-01-17T03:54:47.314Z,3.10
2023-01-17T03:57:00.284Z,3.40
2023-01-17T03:59:13.325Z,3.10
2023-01-17T04:01:26.522Z,3.10
2023-01-17T04:03:39.146Z,3.20
2023-01-17T04:05:53.009Z,3.60
2023-01-17T04:08:08.152Z,3.40
2023-01-17T04:10:22.488Z,3.30
2023-01-17T04:12:37.499Z,3.20
2023-01-17T04:14:51.061Z,3.40
2023-01-17T04:17:05.513Z,3.20
2023-01-17T04:19:19.538Z,3.60
2023-01-17T04:21:32.535Z,3.50
2023-01-17T04:23:45.899Z,3.70
2023-01-17T04:26:00.287Z,3.80
2023-01-17T04:28:15.567Z,3.90
2023-01-17T04:30:29.850Z,3.50
2023-01-17T04:32:43.178Z,3.90
2023-01-17T04:34:57.349Z,4.00
2023-01-17T04:37:10.311Z,3.90
2023-01-17T04:39:23.437Z,3.70
2023-01-17T04:41:36.766Z,4.30
2023-01-17T04:43:50.884Z,4.20
2023-01-17T04:46:06.135Z,3.30
2023-01-17T04:48:22.346Z,3.50
2023-01-17T04:50:35.905Z,3.70
2023-01-17T04:52:50.683Z,3.20
2023-01-17T04:55:05.329Z,3.00
2023-01-17T04:57:19.139Z,3.20
2023-01-17T04:59:33.187Z,2.70
2023-01-17T05:01:47.923Z,3.00
2023-01-17T05:04:01.797Z,3.50
2023-01-17T05:06:15.960Z,3.20
2023-01-17T05:08:30.578Z,3.00
2023-01-17T05:10:44.148Z,2.50
2023-01-17T05:13:02.736Z,3.80
2023-01-17T05:15:17.096Z,2.90
2023-01-17T05:17:30.828Z,2.40
2023-01-17T05:19:45.086Z,2.50
2023-01-17T05:22:04.877Z,2.20
2023-01-17T05:24:19.036Z,2.20
2023-01-17T05:26:32.840Z,3.00
2023-01-17T05:28:47.062Z,3.10
2023-01-17T05:31:01.265Z,3.10
2023-01-17T05:33:15.017Z,2.30
2023-01-17T05:35:29.597Z,3.20
2023-01-17T05:37:49.984Z,2.60
2023-01-17T05:40:03.153Z,2.30
2023-01-17T05:42:15.564Z,2.30
2023-01-17T05:44:28.708Z,1.70
2023-01-17T05:46:41.405Z,2.60
2023-01-17T05:48:54.651Z,2.20
2023-01-17T05:51:07.240Z,2.60
2023-01-17T05:53:20.643Z,2.60
2023-01-17T05:55:34.909Z,2.60
2023-01-17T05:57:48.245Z,1.90
2023-01-17T06:00:01.586Z,2.40
2023-01-17T06:02:19.413Z,2.20
2023-01-17T06:04:34.064Z,2.30
2023-01-17T06:06:47.983Z,2.20
2023-01-17T06:09:01.050Z,2.00
2023-01-17T06:11:16.079Z,2.00
2023-01-17T06:13:29.483Z,2.20
2023-01-17T06:15:43.486Z,2.00
2023-01-17T06:17:56.785Z,2.20
2023-01-17T06:20:12.121Z,2.10
2023-01-17T06:22:25.813Z,2.10
2023-01-17T06:24:40.741Z,1.70
2023-01-17T06:26:54.406Z,1.90
2023-01-17T06:29:07.917Z,2.00
2023-01-17T06:31:21.510Z,1.80
2023-01-17T06:33:35.979Z,2.00
2023-01-17T06:35:53.512Z,1.80
2023-01-17T06:38:07.257Z,1.90
2023-01-17T06:40:21.400Z,1.80
2023-01-17T06:42:34.456Z,2.00
2023-01-17T06:44:48.181Z,1.90
2023-01-17T06:47:01.293Z,2.10
2023-01-17T06:49:15.514Z,2.10
2023-01-17T06:51:28.809Z,2.00
2023-01-17T06:53:42.326Z,2.20
2023-01-17T06:55:58.638Z,2.00
2023-01-17T06:58:13.988Z,2.30
2023-01-17T07:00:29.652Z,1.90
2023-01-17T07:02:48.794Z,2.00
2023-01-17T07:05:02.818Z,2.30
2023-01-17T07:07:16.156Z,3.20
2023-01-17T07:09:29.293Z,3.30
2023-01-17T07:11:42.535Z,2.40
2023-01-17T07:13:57.501Z,2.60
2023-01-17T07:16:12.661Z,2.90
2023-01-17T07:18:28.350Z,2.40
2023-01-17T07:20:44.376Z,2.80
2023-01-17T07:22:57.844Z,2.80
2023-01-17T07:25:12.506Z,2.20
2023-01-17T07:27:25.724Z,2.20
2023-01-17T07:29:38.852Z,2.60
2023-01-17T07:31:54.198Z,3.00
2023-01-17T07:34:07.674Z,2.50
2023-01-17T07:36:23.313Z,2.60
2023-01-17T07:38:36.452Z,2.90
2023-01-17T07:40:49.832Z,2.80
2023-01-17T07:43:15.226Z,3.10
2023-01-17T07:45:29.297Z,2.70
2023-01-17T07:47:43.279Z,2.80
2023-01-17T07:49:56.429Z,2.80
2023-01-17T07:52:12.449Z,2.70
2023-01-17T07:54:26.444Z,2.50
2023-01-17T07:56:40.927Z,2.60
2023-01-17T07:58:53.270Z,2.90
2023-01-17T08:01:10.809Z,2.30
2023-01-17T08:03:24.962Z,2.50
2023-01-17T08:05:38.369Z,2.00
2023-01-17T08:07:52.007Z,2.50
2023-01-17T08:10:07.794Z,2.60
2023-01-17T08:12:21.503Z,2.20
2023-01-17T08:14:34.762Z,2.80
2023-01-17T08:16:47.987Z,2.90
2023-01-17T08:19:01.577Z,2.90
2023-01-17T08:21:20.290Z,3.50
2023-01-17T08:23:34.645Z,2.70
2023-01-17T08:25:47.763Z,2.60
2023-01-17T08:28:02.755Z,2.40
2023-01-17T08:30:17.334Z,2.10
2023-01-17T08:32:31.647Z,2.30
2023-01-17T08:34:44.394Z,2.30
2023-01-17T08:36:58.728Z,2.10
2023-01-17T08:39:14.130Z,2.20
2023-01-17T08:41:28.855Z,1.90
2023-01-17T08:43:42.424Z,1.80
2023-01-17T08:45:56.980Z,1.40
2023-01-17T08:48:12.343Z,1.80
2023-01-17T08:50:27.119Z,1.80
2023-01-17T08:52:41.458Z,2.20
2023-01-17T08:54:55.076Z,1.90
2023-01-17T08:57:09.263Z,1.80
2023-01-17T08:59:22.149Z,1.80
2023-01-17T09:01:43.308Z,1.50
2023-01-17T09:03:57.840Z,1.70
2023-01-17T09:06:15.003Z,1.90
2023-01-17T09:08:28.968Z,1.70
2023-01-17T09:10:42.567Z,2.00
2023-01-17T09:12:57.510Z,1.00
2023-01-17T09:15:15.686Z,1.90
2023-01-17T09:17:28.724Z,1.50
2023-01-17T09:19:48.861Z,1.70
2023-01-17T09:22:02.925Z,1.50
2023-01-17T09:24:16.114Z,1.30
2023-01-17T09:26:31.717Z,1.70
2023-01-17T09:28:45.319Z,1.40
2023-01-17T09:30:59.872Z,1.30
2023-01-17T09:33:14.240Z,1.60
2023-01-17T09:35:28.669Z,1.40
2023-01-17T09:37:42.211Z,1.30
2023-01-17T09:39:56.116Z,1.50
2023-01-17T09:42:23.183Z,1.50
2023-01-17T09:44:44.882Z,1.70
2023-01-17T09:47:02.378Z,1.30
2023-01-17T09:49:27.284Z,1.50
2023-01-17T09:51:43.664Z,1.30
2023-01-17T09:53:59.258Z,1.40
2023-01-17T09:56:19.171Z,1.60
2023-01-17T09:58:46.397Z,1.60
2023-01-17T10:01:15.880Z,1.40
2023-01-17T10:03:52.981Z,1.60
2023-01-17T10:06:22.527Z,2.20
2023-01-17T10:09:01.836Z,1.60
2023-01-17T10:11:48.421Z,1.30
2023-01-17T10:14:09.523Z,1.30
2023-01-17T10:16:36.617Z,1.50
2023-01-17T10:19:08.851Z,1.30
2023-01-17T10:21:34.074Z,1.30
2023-01-17T10:24:02.313Z,1.20
2023-01-17T10:26:18.963Z,1.30
2023-01-17T10:28:36.814Z,1.10
2023-01-17T10:30:53.676Z,1.20
2023-01-17T10:33:19.747Z,0.90
2023-01-17T10:35:40.147Z,1.20
2023-01-17T10:37:57.883Z,0.90
2023-01-17T10:40:21.042Z,1.10
2023-01-17T10:42:48.951Z,1.20
2023-01-17T10:45:08.968Z,0.90
2023-01-17T10:47:26.163Z,1.20
2023-01-17T10:49:41.051Z,0.90
2023-01-17T10:52:13.443Z,0.90
2023-01-17T10:56:43.452Z,1.10
2023-01-17T10:59:12.086Z,1.40
2023-01-17T11:01:27.445Z,1.30
2023-01-17T11:03:41.550Z,1.20
2023-01-17T11:06:23.222Z,1.10
2023-01-17T11:08:57.481Z,1.30
2023-01-17T11:11:11.257Z,1.00
2023-01-17T11:13:37.175Z,1.10
2023-01-17T11:15:57.439Z,1.30
2023-01-17T11:18:18.799Z,1.30
2023-01-17T11:20:39.290Z,1.10
2023-01-17T11:23:07.931Z,1.20
2023-01-17T11:25:36.111Z,1.00
2023-01-17T11:28:03.926Z,0.90
2023-01-17T11:30:27.247Z,0.90
2023-01-17T11:32:40.577Z,1.20
2023-01-17T11:35:19.135Z,1.00
2023-01-17T11:37:32.669Z,1.10
2023-01-17T11:39:49.096Z,1.10
2023-01-17T11:42:03.214Z,1.10
2023-01-17T11:44:31.402Z,1.10
2023-01-17T11:46:44.413Z,1.20
2023-01-17T11:49:00.507Z,1.20
2023-01-17T11:51:33.152Z,1.30
2023-01-17T11:53:50.956Z,1.00
2023-01-17T11:56:09.626Z,1.20
2023-01-17T11:58:23.023Z,1.10
2023-01-17T12:00:42.362Z,0.80
2023-01-17T12:03:25.651Z,1.00
2023-01-17T12:05:54.555Z,1.20
2023-01-17T12:08:17.952Z,0.90
2023-01-17T12:10:36.991Z,1.50
2023-01-17T12:13:20.536Z,1.00
2023-01-17T12:15:52.146Z,1.50
2023-01-17T12:18:32.978Z,1.00
2023-01-17T12:20:52.217Z,1.00
2023-01-17T12:23:30.677Z,1.00
2023-01-17T12:25:58.823Z,1.00
2023-01-17T12:28:28.898Z,1.10
2023-01-17T12:31:05.617Z,2.10
2023-01-17T12:33:27.354Z,1.00
2023-01-17T12:35:44.818Z,1.00
2023-01-17T12:38:06.267Z,0.90
2023-01-17T12:40:28.058Z,1.10
2023-01-17T12:42:47.568Z,1.00
2023-01-17T12:45:07.578Z,1.20
2023-01-17T12:47:22.638Z,1.10
2023-01-17T12:49:46.704Z,1.50
2023-01-17T12:52:08.607Z,1.00
2023-01-17T12:54:27.125Z,0.90
2023-01-17T12:56:45.094Z,1.10
2023-01-17T12:59:06.228Z,0.90
2023-01-17T13:01:27.677Z,1.10
2023-01-17T13:03:57.961Z,0.80
2023-01-17T13:06:18.860Z,0.90
2023-01-17T13:08:39.883Z,1.30
2023-01-17T13:10:59.514Z,1.30
2023-01-17T13:13:25.140Z,0.90
2023-01-17T13:15:44.962Z,1.00
2023-01-17T13:18:03.952Z,1.10
2023-01-17T13:20:27.996Z,0.90
2023-01-17T13:22:44.977Z,1.30
2023-01-17T13:25:09.985Z,1.10
2023-01-17T13:27:40.851Z,1.30
2023-01-17T13:30:16.389Z,1.00
2023-01-17T13:32:54.504Z,1.00
2023-01-17T13:35:23.960Z,1.10
2023-01-17T13:37:55.921Z,1.10
2023-01-17T13:40:30.297Z,1.20
2023-01-17T13:42:57.864Z,1.00
2023-01-17T13:45:25.483Z,1.00
2023-01-17T13:47:44.763Z,0.90
2023-01-17T13:49:59.476Z,0.90
2023-01-17T13:52:33.595Z,1.00
2023-01-17T13:54:55.434Z,0.90
2023-01-17T13:57:44.713Z,1.20
2023-01-17T13:59:58.913Z,0.90
2023-01-17T14:02:43.482Z,1.20
2023-01-17T14:05:16.293Z,1.10
2023-01-17T14:07:34.736Z,1.20
2023-01-17T14:09:52.143Z,1.60
2023-01-17T14:12:27.617Z,1.00
2023-01-17T14:14:54.836Z,1.70
2023-01-17T14:20:21.796Z,1.00
2023-01-17T14:22:36.148Z,0.70
2023-01-17T14:25:03.057Z,0.70
2023-01-17T14:27:25.465Z,1.00
2023-01-17T14:32:07.494Z,0.80
2023-01-17T14:34:23.398Z,0.80
2023-01-17T14:36:34.958Z,1.20
2023-01-17T14:38:47.909Z,1.00
2023-01-17T14:41:00.898Z,1.00
2023-01-17T14:43:15.860Z,1.10
2023-01-17T14:45:31.096Z,0.90
2023-01-17T14:47:41.672Z,0.80
2023-01-17T14:50:10.691Z,0.90
2023-01-17T14:52:23.924Z,0.90
2023-01-17T14:54:34.392Z,0.80
2023-01-17T14:56:44.000Z,0.70
2023-01-17T14:59:17.397Z,1.10
2023-01-17T15:01:27.935Z,1.10
2023-01-17T15:03:44.888Z,1.10
2023-01-17T15:05:57.010Z,1.20
2023-01-17T15:08:07.342Z,1.10
2023-01-17T15:10:20.784Z,1.00
2023-01-17T15:12:30.295Z,1.00
2023-01-17T15:14:41.885Z,1.00
2023-01-17T15:16:52.336Z,1.10
2023-01-17T15:19:02.315Z,0.90
2023-01-17T15:21:17.602Z,0.90
2023-01-17T15:23:32.113Z,1.10
2023-01-17T15:25:42.836Z,1.00
2023-01-17T15:27:53.057Z,1.00
2023-01-17T15:30:04.580Z,0.80
2023-01-17T15:32:23.237Z,1.60
2023-01-17T15:34:34.880Z,1.10
2023-01-17T15:36:44.629Z,1.30
2023-01-17T15:39:00.528Z,1.40
2023-01-17T15:41:23.249Z,1.00
2023-01-17T15:43:36.353Z,0.90
2023-01-17T15:45:57.601Z,1.30
2023-01-17T15:48:42.337Z,1.40
2023-01-17T15:51:01.572Z,1.10
2023-01-17T15:53:32.823Z,1.30
2023-01-17T15:55:49.860Z,1.30
2023-01-17T15:57:59.933Z,1.10
2023-01-17T16:00:21.106Z,0.90
2023-01-17T16:02:45.299Z,1.10
2023-01-17T16:04:55.894Z,1.00
2023-01-17T16:07:22.866Z,1.30
2023-01-17T16:09:43.097Z,0.90
2023-01-17T16:11:52.833Z,1.40
2023-01-17T16:14:02.469Z,1.60
2023-01-17T16:16:17.671Z,1.00
2023-01-17T16:18:28.919Z,1.20
2023-01-17T16:20:42.766Z,1.10
2023-01-17T16:22:53.232Z,1.00
2023-01-17T16:25:03.450Z,1.00
2023-01-17T16:27:13.482Z,1.30
2023-01-17T16:29:23.406Z,1.50
2023-01-17T16:31:34.103Z,1.60
2023-01-17T16:33:43.882Z,1.10
2023-01-17T16:35:55.340Z,1.10
2023-01-17T16:38:07.352Z,1.00
2023-01-17T16:42:27.774Z,1.00
2023-01-17T16:44:40.975Z,1.10
2023-01-17T16:46:50.581Z,1.10
2023-01-17T16:49:00.743Z,1.20
2023-01-17T16:51:13.644Z,0.80
2023-01-17T16:53:25.549Z,1.40
2023-01-17T16:55:34.982Z,1.20
2023-01-17T16:57:44.618Z,1.10
2023-01-17T16:59:54.287Z,1.50
2023-01-17T17:02:05.597Z,1.00
2023-01-17T17:04:16.606Z,1.10
2023-01-17T17:06:26.365Z,1.30
2023-01-17T17:08:37.662Z,1.30
2023-01-17T17:10:47.293Z,1.20
2023-01-17T17:12:57.127Z,1.00
2023-01-17T17:15:07.502Z,1.20
2023-01-17T17:17:17.399Z,1.20
2023-01-17T17:19:28.523Z,1.10
2023-01-17T17:21:39.099Z,1.20
2023-01-17T17:23:51.364Z,1.00
2023-01-17T17:26:01.553Z,1.10
2023-01-17T17:28:13.212Z,0.80
2023-01-17T17:30:22.974Z,1.40
2023-01-17T17:32:32.721Z,1.10
2023-01-17T17:34:42.581Z,0.90
2023-01-17T17:36:53.521Z,1.10
2023-01-17T17:39:04.401Z,0.80
2023-01-17T17:41:14.237Z,0.90
2023-01-17T17:43:26.432Z,1.00
2023-01-17T17:47:44.392Z,1.20
2023-01-17T17:49:54.283Z,1.00
2023-01-17T17:52:09.461Z,1.10
2023-01-17T17:54:20.278Z,0.90
2023-01-17T17:56:31.332Z,1.20
2023-01-17T17:58:41.733Z,1.00
2023-01-17T18:00:52.188Z,1.10
2023-01-17T18:03:02.023Z,1.00
2023-01-17T18:05:13.290Z,0.80
2023-01-17T18:07:23.224Z,0.90
2023-01-17T18:09:33.253Z,0.80
2023-01-17T18:11:44.943Z,0.90
2023-01-17T18:13:57.174Z,0.80
2023-01-17T18:16:09.496Z,0.80
2023-01-17T18:18:19.374Z,0.70
2023-01-17T18:20:29.143Z,0.90
2023-01-17T18:22:39.020Z,1.00
2023-01-17T18:24:48.749Z,1.00
2023-01-17T18:26:59.592Z,1.30
2023-01-17T18:29:11.383Z,0.80
2023-01-17T18:31:21.316Z,0.80
2023-01-17T18:33:31.219Z,0.80
2023-01-17T18:35:41.433Z,0.80
2023-01-17T18:37:51.402Z,0.80
2023-01-17T18:40:03.283Z,0.70
2023-01-17T18:42:13.254Z,0.90
2023-01-17T18:44:23.318Z,0.80
2023-01-17T18:46:33.802Z,0.90
2023-01-17T18:48:44.548Z,0.80
2023-01-17T18:51:04.579Z,0.60
2023-01-17T18:53:14.507Z,0.80
2023-01-17T18:55:24.454Z,0.80
2023-01-17T18:57:34.238Z,1.00
2023-01-17T18:59:45.069Z,0.80
2023-01-17T19:01:55.098Z,0.70
2023-01-17T19:04:06.258Z,1.00
2023-01-17T19:06:18.927Z,1.00
2023-01-17T19:08:30.605Z,0.70
2023-01-17T19:10:40.383Z,1.00
2023-01-17T19:12:50.289Z,0.80
2023-01-17T19:15:00.152Z,0.70
2023-01-17T19:17:10.307Z,0.90
2023-01-17T19:19:20.328Z,0.70
2023-01-17T19:21:32.561Z,0.70
2023-01-17T19:23:43.701Z,0.60
2023-01-17T19:25:58.483Z,0.70
2023-01-17T19:28:08.775Z,0.60
2023-01-17T19:30:19.896Z,0.70
2023-01-17T19:32:29.340Z,0.80
2023-01-17T19:34:38.705Z,0.80
2023-01-17T19:36:48.811Z,0.80
2023-01-17T19:39:04.870Z,0.60
2023-01-17T19:41:16.816Z,0.60
2023-01-17T19:43:28.958Z,0.60
2023-01-17T19:45:39.529Z,0.80
2023-01-17T19:47:50.027Z,0.50
2023-01-17T19:50:00.184Z,0.90
2023-01-17T19:52:10.221Z,0.60
2023-01-17T19:54:20.649Z,0.60
2023-01-17T19:56:32.082Z,0.70
2023-01-17T19:58:42.671Z,1.00
2023-01-17T20:00:53.609Z,0.70
2023-01-17T20:03:04.321Z,0.60
2023-01-17T20:05:16.163Z,0.60
2023-01-17T20:07:27.864Z,0.90
2023-01-17T20:09:38.853Z,0.80
2023-01-17T20:11:51.034Z,0.60
2023-01-17T20:14:01.561Z,0.80
2023-01-17T20:16:14.026Z,0.70
2023-01-17T20:18:24.051Z,0.70
2023-01-17T20:20:34.818Z,0.70
2023-01-17T20:22:48.250Z,1.00
2023-01-17T20:24:57.836Z,0.80
2023-01-17T20:27:07.975Z,0.70
2023-01-17T20:29:18.982Z,0.70
2023-01-17T20:31:30.451Z,0.60
2023-01-17T20:33:40.655Z,0.60
2023-01-17T20:36:04.880Z,0.70
2023-01-17T20:38:19.471Z,0.60
2023-01-17T20:40:29.500Z,0.70
2023-01-17T20:42:41.188Z,0.80
2023-01-17T20:44:51.317Z,0.80
2023-01-17T20:47:01.085Z,0.70
2023-01-17T20:49:15.330Z,0.60
2023-01-17T20:51:26.590Z,0.60
2023-01-17T20:53:36.698Z,0.70
2023-01-17T20:55:48.769Z,0.50
2023-01-17T20:58:00.070Z,0.60
2023-01-17T21:00:13.504Z,0.70
2023-01-17T21:02:23.911Z,0.70
2023-01-17T21:04:34.057Z,0.60
2023-01-17T21:06:44.627Z,1.10
2023-01-17T21:08:55.158Z,0.60
2023-01-17T21:11:05.233Z,0.50
2023-01-17T21:13:15.181Z,0.60
2023-01-17T21:15:25.096Z,0.50
2023-01-17T21:17:36.316Z,0.60
2023-01-17T21:19:46.016Z,0.50
2023-01-17T21:21:56.615Z,0.50
2023-01-17T21:24:06.723Z,0.60
2023-01-17T21:26:18.482Z,0.50
2023-01-17T21:28:29.448Z,1.30
2023-01-17T21:30:40.025Z,0.50
2023-01-17T21:32:50.126Z,0.50
2023-01-17T21:34:59.676Z,0.80
2023-01-17T21:37:09.598Z,0.70
2023-01-17T21:39:20.583Z,0.80
2023-01-17T21:41:31.692Z,0.60
2023-01-17T21:43:41.414Z,0.50
2023-01-17T21:45:52.802Z,0.70
2023-01-17T21:48:03.140Z,0.70
2023-01-17T21:50:28.455Z,0.60
2023-01-17T21:52:42.771Z,0.70
2023-01-17T21:55:09.537Z,0.50
2023-01-17T21:57:38.271Z,0.90
2023-01-17T21:59:48.088Z,0.50
2023-01-17T22:01:58.712Z,0.50
2023-01-17T22:04:10.458Z,0.60
2023-01-17T22:06:20.413Z,0.50
2023-01-17T22:08:35.660Z,0.60
2023-01-17T22:10:48.486Z,0.60
2023-01-17T22:12:58.323Z,0.50
2023-01-17T22:15:09.475Z,0.50
2023-01-17T22:17:19.732Z,0.50
2023-01-17T22:19:29.918Z,0.60
2023-01-17T22:21:39.818Z,0.70
2023-01-17T22:23:52.448Z,0.70
2023-01-17T22:26:08.140Z,0.60
2023-01-17T22:28:18.201Z,0.70
2023-01-17T22:30:28.022Z,0.50
2023-01-17T22:32:37.899Z,0.60
2023-01-17T22:34:48.225Z,0.90
2023-01-17T22:36:58.095Z,0.80
2023-01-17T22:39:07.847Z,0.60
2023-01-17T22:41:20.447Z,0.50
2023-01-17T22:43:31.070Z,0.50
2023-01-17T22:45:40.828Z,0.50
2023-01-17T22:47:50.911Z,0.70
2023-01-17T22:50:01.299Z,0.60
2023-01-17T22:52:11.259Z,0.50
2023-01-17T22:54:24.664Z,0.70
2023-01-17T22:56:37.306Z,0.50
2023-01-17T22:58:49.049Z,0.70
2023-01-17T23:01:05.130Z,0.50
2023-01-17T23:03:15.123Z,0.60
2023-01-17T23:05:26.016Z,0.60
2023-01-17T23:07:44.200Z,0.90
2023-01-17T23:09:53.909Z,0.60
2023-01-17T23:12:03.748Z,0.60
2023-01-17T23:14:16.552Z,0.60
2023-01-17T23:16:43.661Z,0.70
2023-01-17T23:19:10.543Z,0.50
2023-01-17T23:21:20.194Z,0.60
2023-01-17T23:23:29.847Z,0.50
2023-01-17T23:25:39.865Z,0.60
2023-01-17T23:28:07.863Z,0.50
2023-01-17T23:30:20.615Z,0.60
2023-01-17T23:32:31.057Z,0.60
2023-01-17T23:34:40.748Z,1.10
2023-01-17T23:36:50.890Z,0.80
2023-01-17T23:39:00.827Z,1.00
2023-01-17T23:41:28.706Z,0.70
2023-01-17T23:43:38.912Z,0.70
2023-01-17T23:45:48.818Z,0.60
2023-01-17T23:47:58.739Z,0.70
2023-01-17T23:50:09.533Z,0.50
2023-01-17T23:52:19.170Z,0.70
2023-01-17T23:54:32.358Z,0.60
2023-01-17T23:56:42.028Z,0.50
2023-01-17T23:58:51.927Z,0.80
